createdAt,value
2022-11-27T00:46:51.569Z,6.90
2022-11-27T00:49:22.744Z,6.90
2022-11-27T00:51:53.733Z,6.90
2022-11-27T00:54:24.781Z,6.90
2022-11-27T00:56:56.310Z,6.90
2022-11-27T00:59:28.368Z,6.90
2022-11-27T01:02:01.746Z,6.90
2022-11-27T01:04:34.165Z,7.00
2022-11-27T01:07:05.220Z,7.00
2022-11-27T01:09:36.031Z,7.00
2022-11-27T01:12:07.396Z,7.00
2022-11-27T01:14:38.808Z,7.00
2022-11-27T01:17:11.855Z,7.00
2022-11-27T01:19:43.284Z,6.90
2022-11-27T01:22:13.859Z,6.90
2022-11-27T01:24:45.623Z,6.80
2022-11-27T01:27:16.429Z,6.80
2022-11-27T01:29:48.767Z,6.70
2022-11-27T01:32:21.136Z,6.70
2022-11-27T01:34:54.357Z,6.60
2022-11-27T01:37:26.094Z,6.60
2022-11-27T01:39:56.684Z,6.60
2022-11-27T01:42:27.760Z,6.50
2022-11-27T01:44:59.161Z,6.50
2022-11-27T01:47:49.038Z,6.50
2022-11-27T01:50:25.567Z,6.50
2022-11-27T01:53:01.328Z,6.40
2022-11-27T01:55:36.135Z,6.40
2022-11-27T01:58:13.522Z,6.40
2022-11-27T02:00:44.938Z,6.40
2022-11-27T02:03:19.466Z,6.40
2022-11-27T02:05:51.133Z,6.40
2022-11-27T02:08:26.214Z,6.40
2022-11-27T02:11:03.849Z,6.40
2022-11-27T02:13:39.006Z,6.40
2022-11-27T02:16:20.114Z,6.40
2022-11-27T02:19:04.272Z,6.40
2022-11-27T02:21:42.982Z,6.50
2022-11-27T02:24:45.790Z,6.50
2022-11-27T02:27:41.039Z,6.50
2022-11-27T02:30:14.798Z,6.50
2022-11-27T02:32:53.188Z,6.60
2022-11-27T02:35:30.313Z,6.60
2022-11-27T02:38:05.243Z,6.60
2022-11-27T02:40:41.966Z,6.60
2022-11-27T02:43:15.906Z,6.60
2022-11-27T02:45:53.115Z,6.60
2022-11-27T02:48:28.049Z,6.60
2022-11-27T02:51:00.145Z,6.70
2022-11-27T02:53:42.265Z,6.70
2022-11-27T02:56:19.739Z,6.70
2022-11-27T02:58:52.854Z,6.80
2022-11-27T03:01:29.956Z,6.70
2022-11-27T03:04:04.482Z,6.80
2022-11-27T03:06:44.075Z,6.80
2022-11-27T03:09:21.392Z,6.80
2022-11-27T03:11:55.209Z,6.80
2022-11-27T03:14:28.163Z,6.80
2022-11-27T03:17:09.455Z,6.90
2022-11-27T03:19:47.464Z,6.90
2022-11-27T03:22:19.989Z,7.00
2022-11-27T03:24:52.043Z,7.00
2022-11-27T03:27:31.380Z,7.00
2022-11-27T03:30:06.086Z,7.00
2022-11-27T03:32:40.757Z,7.00
2022-11-27T03:35:15.478Z,7.00
2022-11-27T03:37:47.108Z,7.00
2022-11-27T03:40:18.824Z,7.10
2022-11-27T03:43:01.841Z,7.00
2022-11-27T03:45:38.441Z,7.10
2022-11-27T03:48:24.685Z,7.10
2022-11-27T03:51:13.592Z,7.10
2022-11-27T03:53:56.007Z,7.10
2022-11-27T03:56:38.526Z,7.10
2022-11-27T03:59:15.366Z,7.20
2022-11-27T04:01:47.944Z,7.10
2022-11-27T04:04:21.121Z,7.20
2022-11-27T04:06:52.305Z,7.20
2022-11-27T04:09:23.553Z,7.20
2022-11-27T04:11:54.951Z,7.20
2022-11-27T04:14:26.522Z,7.20
2022-11-27T04:16:58.806Z,7.20
2022-11-27T04:19:33.980Z,7.20
2022-11-27T04:22:05.057Z,7.30
2022-11-27T04:24:36.676Z,7.30
2022-11-27T04:27:08.770Z,7.30
2022-11-27T04:29:40.930Z,7.30
2022-11-27T04:32:12.903Z,7.20
2022-11-27T04:34:46.744Z,7.20
2022-11-27T04:37:18.958Z,7.30
2022-11-27T04:39:50.762Z,7.30
2022-11-27T04:42:22.395Z,7.30
2022-11-27T04:44:54.446Z,7.30
2022-11-27T04:47:26.514Z,7.30
2022-11-27T04:50:01.400Z,7.30
2022-11-27T04:52:32.735Z,7.40
2022-11-27T04:55:04.026Z,7.40
2022-11-27T04:57:35.849Z,7.40
2022-11-27T05:00:11.351Z,7.40
2022-11-27T05:02:42.477Z,7.40
2022-11-27T05:05:16.187Z,7.40
2022-11-27T05:07:47.586Z,7.40
2022-11-27T05:10:19.065Z,7.40
2022-11-27T05:12:50.434Z,7.40
2022-11-27T05:15:23.311Z,7.40
2022-11-27T05:17:55.849Z,7.40
2022-11-27T05:20:29.443Z,7.40
2022-11-27T05:23:00.870Z,7.40
2022-11-27T05:25:32.515Z,7.40
2022-11-27T05:28:03.756Z,7.40
2022-11-27T05:30:35.424Z,7.40
2022-11-27T05:33:09.293Z,7.40
2022-11-27T05:35:44.077Z,7.40
2022-11-27T05:38:15.860Z,7.40
2022-11-27T05:40:52.400Z,7.40
2022-11-27T05:43:25.174Z,7.40
2022-11-27T05:45:58.186Z,7.30
2022-11-27T05:48:30.380Z,7.30
2022-11-27T05:51:05.311Z,7.30
2022-11-27T05:53:38.133Z,7.30
2022-11-27T05:56:13.210Z,7.30
2022-11-27T05:58:47.085Z,7.30
2022-11-27T06:01:21.323Z,7.30
2022-11-27T06:03:53.419Z,7.20
2022-11-27T06:06:26.833Z,7.20
2022-11-27T06:08:58.017Z,7.10
2022-11-27T06:11:29.769Z,7.10
2022-11-27T06:14:01.047Z,7.10
2022-11-27T06:16:32.575Z,7.10
2022-11-27T06:19:03.981Z,7.10
2022-11-27T06:21:37.280Z,7.10
2022-11-27T06:24:09.485Z,7.10
2022-11-27T06:26:40.930Z,7.00
2022-11-27T06:29:13.159Z,7.00
2022-11-27T06:31:45.265Z,7.10
2022-11-27T06:34:18.398Z,7.10
2022-11-27T06:36:57.106Z,7.10
2022-11-27T06:39:28.368Z,7.20
2022-11-27T06:42:00.734Z,7.20
2022-11-27T06:44:32.731Z,7.20
2022-11-27T06:47:04.526Z,7.20
2022-11-27T06:49:36.439Z,7.20
2022-11-27T06:52:10.315Z,7.10
2022-11-27T06:54:42.086Z,7.10
2022-11-27T06:57:16.845Z,7.10
2022-11-27T06:59:48.395Z,7.10
2022-11-27T07:02:21.037Z,7.10
2022-11-27T07:04:53.638Z,7.10
2022-11-27T07:07:28.449Z,7.00
2022-11-27T07:10:03.954Z,7.00
2022-11-27T07:12:36.502Z,7.10
2022-11-27T07:15:15.098Z,7.00
2022-11-27T07:17:47.019Z,7.10
2022-11-27T07:20:22.041Z,6.90
2022-11-27T07:22:56.978Z,7.00
2022-11-27T07:25:29.474Z,7.00
2022-11-27T07:28:01.703Z,7.00
2022-11-27T07:30:33.094Z,6.90
2022-11-27T07:33:04.856Z,6.90
2022-11-27T07:35:36.392Z,6.90
2022-11-27T07:38:12.254Z,6.80
2022-11-27T07:40:44.403Z,6.80
2022-11-27T07:43:17.056Z,6.80
2022-11-27T07:45:49.787Z,6.80
2022-11-27T07:48:21.619Z,6.80
2022-11-27T07:50:53.073Z,6.80
2022-11-27T07:53:26.251Z,6.80
2022-11-27T07:55:58.213Z,6.90
2022-11-27T07:58:29.554Z,6.90
2022-11-27T08:01:00.963Z,6.90
2022-11-27T08:03:32.308Z,7.00
2022-11-27T08:06:03.603Z,7.00
2022-11-27T08:08:37.051Z,7.00
2022-11-27T08:11:09.266Z,7.10
2022-11-27T08:13:40.484Z,7.10
2022-11-27T08:16:12.915Z,7.20
2022-11-27T08:18:45.161Z,7.20
2022-11-27T08:21:16.340Z,7.20
2022-11-27T08:23:50.156Z,7.20
2022-11-27T08:26:22.346Z,7.20
2022-11-27T08:28:56.851Z,7.20
2022-11-27T08:31:30.256Z,7.20
2022-11-27T08:34:02.232Z,7.20
2022-11-27T08:36:33.570Z,7.20
2022-11-27T08:39:09.208Z,7.20
2022-11-27T08:41:41.220Z,7.20
